Consulta les dades en temps real de l'estació meteorològica de Bagà
| Hora UTC | 21:10 |
|---|---|
| Temperatura | 18.6 ºC |
| Humitat | 85.0 % |
| Pressió | 1021.9 hPa |
| Pluja | 0.0 mm |
| Velocitat vent | 0.0 km/h |
| Direcció vent | E |
| Radiació solar | 0.0 W/m² |
| Temperatura (ºC) | Humitat (%) | Pressió (hPa) | Velocitat vent (km/h) | Precipitació (mm) | Radiació solar (W/m²) | |||||||||||||
|---|---|---|---|---|---|---|---|---|---|---|---|---|---|---|---|---|---|---|
| Hora UTC | Aire | Humitat | Pressió | Vel. | Dir. | Vel. Max | Dir. | Intent. màx 5 min. | Rad. Sol. | |||||||||
| 00:05 | 19.6 | 85.0 | 1023.2 | 0.0 | E | 0.0 | 0.0 | 0.0 | ||||||||||
| 00:10 | 19.6 | 85.0 | 1023.2 | 0.0 | E | 0.0 | 0.0 | 0.0 | ||||||||||
| 00:15 | 19.6 | 85.0 | 1023.2 | 0.0 | E | 0.0 | 0.0 | 0.0 | ||||||||||
| 00:20 | 19.5 | 85.0 | 1023.2 | 0.0 | E | 0.0 | 0.0 | 0.0 | ||||||||||
| 00:25 | 19.4 | 85.0 | 1023.2 | 0.0 | E | 0.0 | 0.0 | 0.0 | ||||||||||
| 00:30 | 19.4 | 84.0 | 1023.2 | 0.0 | E | 0.0 | 0.0 | 0.0 | ||||||||||
| 00:35 | 19.4 | 84.0 | 1023.2 | 0.0 | E | 0.0 | 0.0 | 0.0 | ||||||||||
| 00:40 | 19.3 | 84.0 | 1023.2 | 0.0 | E | 0.0 | 0.0 | 0.0 | ||||||||||
| 00:45 | 19.2 | 84.0 | 1023.2 | 0.0 | E | 0.0 | 0.0 | 0.0 | ||||||||||
| 00:50 | 19.1 | 83.0 | 1023.1 | 0.0 | E | 0.0 | 0.0 | 0.0 | ||||||||||
| 00:55 | 19.0 | 83.0 | 1023.1 | 0.0 | E | 0.0 | 0.0 | 0.0 | ||||||||||
| 01:00 | 18.9 | 83.0 | 1023.1 | 0.0 | E | 0.0 | 0.0 | 0.0 | ||||||||||
| 01:05 | 18.8 | 83.0 | 1023.1 | 0.0 | E | 0.0 | 0.0 | 0.0 | ||||||||||
| 01:10 | 18.8 | 84.0 | 1023.0 | 0.0 | E | 0.0 | 0.0 | 0.0 | ||||||||||
| 01:15 | 18.7 | 85.0 | 1023.1 | 0.0 | E | 0.0 | 0.0 | 0.0 | ||||||||||
| 01:20 | 18.7 | 85.0 | 1023.1 | 0.0 | E | 0.0 | 0.0 | 0.0 | ||||||||||
| 01:25 | 18.6 | 85.0 | 1023.1 | 0.0 | E | 0.0 | 0.0 | 0.0 | ||||||||||
| 01:30 | 18.5 | 85.0 | 1023.1 | 0.0 | E | 0.0 | 0.0 | 0.0 | ||||||||||
| 01:35 | 18.4 | 85.0 | 1023.1 | 0.0 | E | 0.0 | 0.0 | 0.0 | ||||||||||
| 01:40 | 18.4 | 86.0 | 1023.2 | 0.0 | E | 0.0 | 0.0 | 0.0 | ||||||||||
| 01:45 | 18.4 | 85.0 | 1023.2 | 0.0 | E | 0.0 | 0.0 | 0.0 | ||||||||||
| 01:50 | 18.4 | 86.0 | 1023.2 | 0.0 | E | 0.0 | 0.0 | 0.0 | ||||||||||
| 01:55 | 18.4 | 86.0 | 1023.1 | 0.0 | E | 0.0 | 0.0 | 0.0 | ||||||||||
| 02:00 | 18.4 | 87.0 | 1023.1 | 0.0 | E | 0.0 | 0.0 | 0.0 | ||||||||||
| 02:05 | 18.4 | 87.0 | 1023.1 | 0.0 | E | 0.0 | 0.0 | 0.0 | ||||||||||
| 02:10 | 18.4 | 87.0 | 1023.1 | 0.0 | E | 0.0 | 0.0 | 0.0 | ||||||||||
| 02:15 | 18.4 | 87.0 | 1023.0 | 0.0 | E | 0.0 | 0.0 | 0.0 | ||||||||||
| 02:20 | 18.4 | 87.0 | 1023.0 | 0.0 | E | 0.0 | 0.0 | 0.0 | ||||||||||
| 02:25 | 18.4 | 87.0 | 1022.9 | 0.0 | E | 0.0 | 0.0 | 0.0 | ||||||||||
| 02:30 | 18.3 | 87.0 | 1022.9 | 0.0 | E | 0.0 | 0.0 | 0.0 | ||||||||||
| 02:35 | 18.3 | 87.0 | 1022.9 | 0.0 | E | 0.0 | 0.0 | 0.0 | ||||||||||
| 02:40 | 18.3 | 87.0 | 1022.9 | 0.0 | E | 0.0 | 0.0 | 0.0 | ||||||||||
| 02:45 | 18.3 | 87.0 | 1022.8 | 0.0 | E | 0.0 | 0.0 | 0.0 | ||||||||||
| 02:50 | 18.3 | 88.0 | 1022.9 | 0.0 | E | 0.0 | 0.0 | 0.0 | ||||||||||
| 02:55 | 18.2 | 88.0 | 1022.8 | 0.0 | E | 0.0 | 0.0 | 0.0 | ||||||||||
| 03:00 | 18.1 | 88.0 | 1022.9 | 0.0 | E | 0.0 | 0.0 | 0.0 | ||||||||||
| 03:05 | 18.1 | 89.0 | 1022.8 | 0.0 | E | 0.0 | 0.0 | 0.0 | ||||||||||
| 03:10 | 18.1 | 89.0 | 1022.7 | 0.0 | E | 0.0 | 0.0 | 0.0 | ||||||||||
| 03:15 | 18.1 | 89.0 | 1022.7 | 0.0 | E | 0.0 | 0.0 | 0.0 | ||||||||||
| 03:20 | 18.1 | 89.0 | 1022.6 | 0.0 | E | 0.0 | 0.0 | 0.0 | ||||||||||
| 03:25 | 18.1 | 89.0 | 1022.6 | 0.0 | E | 0.0 | 0.0 | 0.0 | ||||||||||
| 03:30 | 17.9 | 89.0 | 1022.6 | 0.0 | E | 1.6 | 0.0 | 0.0 | ||||||||||
| 03:35 | 17.8 | 89.0 | 1022.5 | 0.0 | E | 1.6 | 0.0 | 0.0 | ||||||||||
| 03:40 | 17.8 | 89.0 | 1022.5 | 0.0 | E | 0.0 | 0.0 | 0.0 | ||||||||||
| 03:45 | 17.7 | 89.0 | 1022.5 | 0.0 | E | 0.0 | 0.0 | 0.0 | ||||||||||
| 03:50 | 17.6 | 89.0 | 1022.4 | 0.0 | E | 0.0 | 0.0 | 0.0 | ||||||||||
| 03:55 | 17.4 | 89.0 | 1022.2 | 0.0 | E | 0.0 | 0.0 | 0.0 | ||||||||||
| 04:00 | 17.3 | 90.0 | 1022.3 | 0.0 | E | 0.0 | 0.0 | 0.0 | ||||||||||
| 04:05 | 17.2 | 90.0 | 1022.3 | 0.0 | E | 0.0 | 0.0 | 0.0 | ||||||||||
| 04:10 | 17.1 | 91.0 | 1022.2 | 0.0 | E | 0.0 | 0.0 | 0.0 | ||||||||||
| 04:15 | 17.0 | 91.0 | 1022.1 | 0.0 | E | 0.0 | 0.0 | 0.0 | ||||||||||
| 04:20 | 16.9 | 91.0 | 1022.1 | 0.0 | E | 0.0 | 0.0 | 0.0 | ||||||||||
| 04:25 | 16.9 | 92.0 | 1022.1 | 0.0 | E | 0.0 | 0.0 | 0.0 | ||||||||||
| 04:30 | 16.9 | 92.0 | 1022.1 | 0.0 | E | 0.0 | 0.0 | 0.0 | ||||||||||
| 04:35 | 16.8 | 92.0 | 1022.1 | 0.0 | E | 0.0 | 0.0 | 0.0 | ||||||||||
| 04:40 | 16.8 | 92.0 | 1022.0 | 0.0 | E | 0.0 | 0.0 | 0.0 | ||||||||||
| 04:45 | 16.7 | 92.0 | 1022.1 | 0.0 | E | 0.0 | 0.0 | 0.0 | ||||||||||
| 04:50 | 16.6 | 92.0 | 1022.1 | 0.0 | ENE | 1.6 | 0.0 | 0.0 | ||||||||||
| 04:55 | 16.4 | 92.0 | 1022.1 | 0.0 | ENE | 1.6 | 0.0 | 0.0 | ||||||||||
| 05:00 | 16.3 | 92.0 | 1022.1 | 0.0 | ENE | 1.6 | 0.0 | 0.0 | ||||||||||
| 05:05 | 16.2 | 93.0 | 1022.1 | 0.0 | ENE | 0.0 | 0.0 | 0.0 | ||||||||||
| 05:10 | 16.3 | 93.0 | 1022.1 | 0.0 | E | 1.6 | 0.0 | 0.0 | ||||||||||
| 05:15 | 16.2 | 93.0 | 1022.1 | 0.0 | E | 1.6 | 0.0 | 0.0 | ||||||||||
| 05:20 | 16.3 | 93.0 | 1022.1 | 0.0 | E | 0.0 | 0.0 | 0.0 | ||||||||||
| 05:25 | 16.2 | 92.0 | 1022.2 | 0.0 | E | 0.0 | 0.0 | 0.0 | ||||||||||
| 05:30 | 16.2 | 92.0 | 1022.2 | 0.0 | E | 0.0 | 0.0 | 5.0 | ||||||||||
| 05:35 | 16.2 | 93.0 | 1022.2 | 0.0 | E | 0.0 | 0.0 | 7.0 | ||||||||||
| 05:40 | 16.3 | 93.0 | 1022.3 | 0.0 | E | 0.0 | 0.0 | 7.0 | ||||||||||
| 05:45 | 16.3 | 93.0 | 1022.4 | 0.0 | E | 0.0 | 0.0 | 7.0 | ||||||||||
| 05:50 | 16.3 | 93.0 | 1022.5 | 0.0 | E | 0.0 | 0.0 | 9.0 | ||||||||||
| 05:55 | 16.4 | 92.0 | 1022.5 | 0.0 | E | 0.0 | 0.0 | 11.0 | ||||||||||
| 06:00 | 16.4 | 92.0 | 1022.6 | 0.0 | ESE | 0.0 | 0.0 | 16.0 | ||||||||||
| 06:05 | 16.4 | 90.0 | 1022.6 | 0.0 | WNW | 0.0 | 0.0 | 21.0 | ||||||||||
| 06:10 | 16.6 | 89.0 | 1022.7 | 0.0 | WNW | 1.6 | 0.0 | 26.0 | ||||||||||
| 06:15 | 16.7 | 88.0 | 1022.7 | 0.0 | WNW | 3.2 | 0.0 | 32.0 | ||||||||||
| 06:20 | 16.8 | 88.0 | 1022.6 | 0.0 | WNW | 3.2 | 0.0 | 40.0 | ||||||||||
| 06:25 | 16.9 | 87.0 | 1022.7 | 0.0 | W | 3.2 | 0.0 | 47.0 | ||||||||||
| 06:30 | 17.2 | 87.0 | 1022.7 | 0.0 | WNW | 3.2 | 0.0 | 54.0 | ||||||||||
| 06:35 | 17.3 | 86.0 | 1022.6 | 0.0 | WNW | 0.0 | 0.0 | 62.0 | ||||||||||
| 06:40 | 17.5 | 87.0 | 1022.6 | 0.0 | WNW | 0.0 | 0.0 | 65.0 | ||||||||||
| 06:45 | 17.6 | 86.0 | 1022.6 | 0.0 | W | 0.0 | 0.0 | 60.0 | ||||||||||
| 06:50 | 17.8 | 86.0 | 1022.6 | 0.0 | W | 0.0 | 0.0 | 149.0 | ||||||||||
| 06:55 | 18.1 | 85.0 | 1022.6 | 0.0 | W | 0.0 | 0.0 | 156.0 | ||||||||||
| 07:00 | 18.4 | 84.0 | 1022.6 | 0.0 | E | 0.0 | 0.0 | 179.0 | ||||||||||
| 07:05 | 19.1 | 82.0 | 1022.6 | 1.6 | ESE | 8.0 | 0.0 | 190.0 | ||||||||||
| 07:10 | 19.3 | 82.0 | 1022.5 | 3.2 | ESE | 8.0 | 0.0 | 199.0 | ||||||||||
| 07:15 | 19.6 | 81.0 | 1022.6 | 0.0 | ESE | 4.8 | 0.0 | 207.0 | ||||||||||
| 07:20 | 19.8 | 80.0 | 1022.5 | 0.0 | ESE | 4.8 | 0.0 | 211.0 | ||||||||||
| 07:25 | 20.1 | 79.0 | 1022.5 | 0.0 | SSE | 1.6 | 0.0 | 229.0 | ||||||||||
| 07:30 | 20.3 | 79.0 | 1022.6 | 0.0 | SSW | 1.6 | 0.0 | 227.0 | ||||||||||
| 07:35 | 20.4 | 78.0 | 1022.6 | 0.0 | SSW | 1.6 | 0.0 | 221.0 | ||||||||||
| 07:40 | 20.7 | 77.0 | 1022.5 | 0.0 | S | 1.6 | 0.0 | 223.0 | ||||||||||
| 07:45 | 21.0 | 77.0 | 1022.6 | 0.0 | SSE | 1.6 | 0.0 | 234.0 | ||||||||||
| 07:50 | 21.3 | 76.0 | 1022.7 | 0.0 | E | 1.6 | 0.0 | 276.0 | ||||||||||
| 07:55 | 21.3 | 76.0 | 1022.6 | 0.0 | SSE | 6.4 | 0.0 | 302.0 | ||||||||||
| 08:00 | 21.4 | 75.0 | 1022.6 | 1.6 | ESE | 6.4 | 0.0 | 306.0 | ||||||||||
| 08:05 | 21.6 | 75.0 | 1022.6 | 0.0 | SSW | 4.8 | 0.0 | 315.0 | ||||||||||
| 08:10 | 21.8 | 75.0 | 1022.5 | 0.0 | SSE | 1.6 | 0.0 | 338.0 | ||||||||||
| 08:15 | 22.2 | 73.0 | 1022.6 | 1.6 | SE | 3.2 | 0.0 | 364.0 | ||||||||||
| 08:20 | 22.3 | 73.0 | 1022.6 | 0.0 | S | 4.8 | 0.0 | 399.0 | ||||||||||
| 08:25 | 22.5 | 71.0 | 1022.6 | 1.6 | SE | 4.8 | 0.0 | 434.0 | ||||||||||
| 08:30 | 22.7 | 71.0 | 1022.6 | 1.6 | S | 4.8 | 0.0 | 461.0 | ||||||||||
| 08:35 | 22.8 | 71.0 | 1022.6 | 0.0 | S | 4.8 | 0.0 | 471.0 | ||||||||||
| 08:40 | 23.0 | 70.0 | 1022.5 | 1.6 | SSE | 4.8 | 0.0 | 483.0 | ||||||||||
| 08:45 | 23.1 | 70.0 | 1022.5 | 0.0 | W | 4.8 | 0.0 | 497.0 | ||||||||||
| 08:50 | 23.2 | 68.0 | 1022.5 | 0.0 | S | 4.8 | 0.0 | 508.0 | ||||||||||
| 08:55 | 23.4 | 69.0 | 1022.5 | 0.0 | ESE | 3.2 | 0.0 | 524.0 | ||||||||||
| 09:00 | 23.8 | 69.0 | 1022.4 | 1.6 | SE | 3.2 | 0.0 | 534.0 | ||||||||||
| 09:05 | 23.9 | 67.0 | 1022.3 | 1.6 | ESE | 4.8 | 0.0 | 541.0 | ||||||||||
| 09:10 | 24.2 | 68.0 | 1022.4 | 0.0 | SE | 4.8 | 0.0 | 559.0 | ||||||||||
| 09:15 | 24.6 | 66.0 | 1022.2 | 3.2 | SSW | 4.8 | 0.0 | 570.0 | ||||||||||
| 09:20 | 24.6 | 65.0 | 1022.2 | 3.2 | S | 4.8 | 0.0 | 580.0 | ||||||||||
| 09:25 | 24.7 | 66.0 | 1022.1 | 1.6 | NNE | 6.4 | 0.0 | 589.0 | ||||||||||
| 09:30 | 24.7 | 65.0 | 1022.1 | 1.6 | S | 6.4 | 0.0 | 599.0 | ||||||||||
| 09:35 | 25.1 | 64.0 | 1022.1 | 3.2 | SE | 6.4 | 0.0 | 608.0 | ||||||||||
| 09:40 | 25.3 | 63.0 | 1022.0 | 1.6 | ESE | 4.8 | 0.0 | 621.0 | ||||||||||
| 09:45 | 25.4 | 62.0 | 1022.0 | 1.6 | S | 8.0 | 0.0 | 628.0 | ||||||||||
| 09:50 | 25.5 | 59.0 | 1022.0 | 3.2 | SE | 8.0 | 0.0 | 638.0 | ||||||||||
| 09:55 | 25.8 | 60.0 | 1021.9 | 0.0 | E | 6.4 | 0.0 | 647.0 | ||||||||||
| 10:00 | 26.2 | 56.0 | 1021.9 | 0.0 | SE | 4.8 | 0.0 | 659.0 | ||||||||||
| 10:05 | 26.6 | 56.0 | 1021.8 | 0.0 | SSE | 8.0 | 0.0 | 664.0 | ||||||||||
| 10:10 | 26.9 | 56.0 | 1021.8 | 1.6 | E | 8.0 | 0.0 | 671.0 | ||||||||||
| 10:15 | 27.3 | 53.0 | 1021.8 | 1.6 | ESE | 4.8 | 0.0 | 682.0 | ||||||||||
| 10:20 | 27.4 | 51.0 | 1021.8 | 4.8 | E | 8.0 | 0.0 | 689.0 | ||||||||||
| 10:25 | 27.3 | 56.0 | 1021.7 | 3.2 | SE | 8.0 | 0.0 | 696.0 | ||||||||||
| 10:30 | 27.3 | 53.0 | 1021.7 | 4.8 | ESE | 11.3 | 0.0 | 700.0 | ||||||||||
| 10:35 | 27.3 | 61.0 | 1021.8 | 6.4 | SSE | 14.5 | 0.0 | 707.0 | ||||||||||
| 10:40 | 27.6 | 58.0 | 1021.9 | 8.0 | ENE | 14.5 | 0.0 | 710.0 | ||||||||||
| 10:45 | 27.8 | 57.0 | 1022.0 | 6.4 | ESE | 12.9 | 0.0 | 715.0 | ||||||||||
| 10:50 | 27.8 | 57.0 | 1022.0 | 3.2 | SE | 16.1 | 0.0 | 717.0 | ||||||||||
| 10:55 | 27.9 | 57.0 | 1022.0 | 4.8 | SE | 16.1 | 0.0 | 722.0 | ||||||||||
| 11:00 | 27.9 | 57.0 | 1022.0 | 4.8 | S | 11.3 | 0.0 | 724.0 | ||||||||||
| 11:05 | 27.9 | 57.0 | 1022.0 | 8.0 | SE | 12.9 | 0.0 | 729.0 | ||||||||||
| 11:10 | 27.8 | 59.0 | 1022.0 | 1.6 | SE | 12.9 | 0.0 | 733.0 | ||||||||||
| 11:15 | 27.8 | 59.0 | 1022.1 | 3.2 | ESE | 11.3 | 0.0 | 733.0 | ||||||||||
| 11:20 | 27.6 | 61.0 | 1022.1 | 1.6 | SSE | 8.0 | 0.0 | 737.0 | ||||||||||
| 11:25 | 27.5 | 60.0 | 1022.1 | 0.0 | ESE | 9.7 | 0.0 | 740.0 | ||||||||||
| 11:30 | 27.4 | 61.0 | 1022.1 | 4.8 | S | 11.3 | 0.0 | 745.0 | ||||||||||
| 11:35 | 27.3 | 61.0 | 1022.1 | 6.4 | SE | 20.9 | 0.0 | 744.0 | ||||||||||
| 11:40 | 27.3 | 61.0 | 1022.2 | 4.8 | SE | 20.9 | 0.0 | 745.0 | ||||||||||
| 11:45 | 27.4 | 60.0 | 1022.1 | 8.0 | SE | 20.9 | 0.0 | 749.0 | ||||||||||
| 11:50 | 27.4 | 61.0 | 1022.1 | 3.2 | E | 14.5 | 0.0 | 749.0 | ||||||||||
| 11:55 | 27.7 | 60.0 | 1022.0 | 3.2 | E | 14.5 | 0.0 | 747.0 | ||||||||||
| 12:00 | 28.1 | 60.0 | 1022.0 | 0.0 | SSE | 8.0 | 0.0 | 751.0 | ||||||||||
| 12:05 | 28.3 | 58.0 | 1021.9 | 1.6 | ESE | 12.9 | 0.0 | 747.0 | ||||||||||
| 12:10 | 28.4 | 58.0 | 1021.9 | 0.0 | E | 16.1 | 0.0 | 747.0 | ||||||||||
| 12:15 | 28.7 | 57.0 | 1022.0 | 1.6 | S | 16.1 | 0.0 | 751.0 | ||||||||||
| 12:20 | 28.9 | 56.0 | 1022.0 | 0.0 | SE | 8.0 | 0.0 | 770.0 | ||||||||||
| 12:25 | 28.7 | 56.0 | 1021.9 | 0.0 | SSW | 11.3 | 0.0 | 686.0 | ||||||||||
| 12:30 | 28.4 | 56.0 | 1021.8 | 3.2 | SSE | 14.5 | 0.0 | 758.0 | ||||||||||
| 12:35 | 28.4 | 56.0 | 1021.8 | 0.0 | SSE | 14.5 | 0.0 | 503.0 | ||||||||||
| 12:40 | 28.1 | 55.0 | 1021.8 | 1.6 | SSE | 12.9 | 0.0 | 490.0 | ||||||||||
| 12:45 | 27.8 | 57.0 | 1021.9 | 0.0 | SE | 12.9 | 0.0 | 554.0 | ||||||||||
| 12:50 | 27.5 | 58.0 | 1021.9 | 0.0 | SE | 12.9 | 0.0 | 316.0 | ||||||||||
| 12:55 | 27.3 | 59.0 | 1022.0 | 3.2 | S | 11.3 | 0.0 | 448.0 | ||||||||||
| 13:00 | 27.4 | 59.0 | 1022.1 | 1.6 | NNE | 11.3 | 0.0 | 666.0 | ||||||||||
| 13:05 | 27.3 | 59.0 | 1021.8 | 0.0 | ESE | 11.3 | 0.0 | 369.0 | ||||||||||
| 13:10 | 27.0 | 59.0 | 1021.7 | 4.8 | SSE | 12.9 | 0.0 | 329.0 | ||||||||||
| 13:15 | 27.1 | 61.0 | 1021.6 | 0.0 | ESE | 12.9 | 0.0 | 689.0 | ||||||||||
| 13:20 | 27.3 | 58.0 | 1021.8 | 11.3 | ESE | 12.9 | 0.0 | 243.0 | ||||||||||
| 13:25 | 26.9 | 60.0 | 1021.7 | 0.0 | SSE | 12.9 | 0.0 | 378.0 | ||||||||||
| 13:30 | 26.9 | 58.0 | 1021.6 | 0.0 | SSE | 11.3 | 0.0 | 364.0 | ||||||||||
| 13:35 | 27.1 | 59.0 | 1021.6 | 3.2 | SSW | 11.3 | 0.0 | 543.0 | ||||||||||
| 13:40 | 27.3 | 58.0 | 1021.6 | 1.6 | S | 8.0 | 0.0 | 309.0 | ||||||||||
| 13:45 | 27.2 | 58.0 | 1021.5 | 0.0 | SE | 9.7 | 0.0 | 564.0 | ||||||||||
| 13:50 | 27.6 | 59.0 | 1021.3 | 0.0 | E | 9.7 | 0.0 | 729.0 | ||||||||||
| 13:55 | 28.1 | 58.0 | 1021.2 | 0.0 | SSE | 11.3 | 0.0 | 642.0 | ||||||||||
| 14:00 | 28.6 | 56.0 | 1021.1 | 3.2 | E | 11.3 | 0.0 | 613.0 | ||||||||||
| 14:05 | 28.8 | 53.0 | 1021.0 | 0.0 | SE | 6.4 | 0.0 | 649.0 | ||||||||||
| 14:10 | 28.9 | 54.0 | 1021.1 | 0.0 | SSE | 8.0 | 0.0 | 628.0 | ||||||||||
| 14:15 | 29.1 | 53.0 | 1021.0 | 0.0 | SW | 8.0 | 0.0 | 613.0 | ||||||||||
| 14:20 | 29.1 | 52.0 | 1021.0 | 1.6 | SSE | 6.4 | 0.0 | 599.0 | ||||||||||
| 14:25 | 29.0 | 53.0 | 1021.0 | 0.0 | N | 6.4 | 0.0 | 591.0 | ||||||||||
| 14:30 | 29.2 | 52.0 | 1020.9 | 4.8 | S | 6.4 | 0.0 | 582.0 | ||||||||||
| 14:35 | 29.2 | 52.0 | 1020.9 | 4.8 | S | 8.0 | 0.0 | 568.0 | ||||||||||
| 14:40 | 29.2 | 51.0 | 1020.7 | 3.2 | SSE | 8.0 | 0.0 | 557.0 | ||||||||||
| 14:45 | 29.1 | 53.0 | 1020.7 | 1.6 | SSE | 8.0 | 0.0 | 547.0 | ||||||||||
| 14:50 | 29.1 | 52.0 | 1020.7 | 0.0 | SSE | 8.0 | 0.0 | 536.0 | ||||||||||
| 14:55 | 29.1 | 52.0 | 1020.7 | 4.8 | SSW | 6.4 | 0.0 | 524.0 | ||||||||||
| 15:00 | 28.9 | 52.0 | 1020.6 | 0.0 | SSE | 6.4 | 0.0 | 510.0 | ||||||||||
| 15:05 | 28.7 | 52.0 | 1020.6 | 0.0 | SSW | 4.8 | 0.0 | 65.0 | ||||||||||
| 15:10 | 28.4 | 53.0 | 1020.6 | 0.0 | SSE | 4.8 | 0.0 | 65.0 | ||||||||||
| 15:15 | 28.2 | 53.0 | 1020.6 | 0.0 | S | 4.8 | 0.0 | 67.0 | ||||||||||
| 15:20 | 28.2 | 55.0 | 1020.6 | 0.0 | ESE | 3.2 | 0.0 | 84.0 | ||||||||||
| 15:25 | 28.1 | 55.0 | 1020.6 | 0.0 | SE | 3.2 | 0.0 | 69.0 | ||||||||||
| 15:30 | 27.9 | 55.0 | 1020.6 | 0.0 | SSE | 6.4 | 0.0 | 69.0 | ||||||||||
| 15:35 | 27.7 | 55.0 | 1020.5 | 0.0 | S | 8.0 | 0.0 | 60.0 | ||||||||||
| 15:40 | 27.6 | 56.0 | 1020.5 | 0.0 | SSE | 8.0 | 0.0 | 58.0 | ||||||||||
| 15:45 | 27.4 | 57.0 | 1020.6 | 1.6 | SE | 6.4 | 0.0 | 60.0 | ||||||||||
| 15:50 | 27.3 | 58.0 | 1020.6 | 0.0 | SSE | 6.4 | 0.0 | 62.0 | ||||||||||
| 15:55 | 27.3 | 59.0 | 1020.6 | 0.0 | S | 8.0 | 0.0 | 74.0 | ||||||||||
| 16:00 | 27.3 | 58.0 | 1020.6 | 1.6 | ENE | 8.0 | 0.0 | 91.0 | ||||||||||
| 16:05 | 27.2 | 58.0 | 1020.7 | 3.2 | S | 8.0 | 0.0 | 56.0 | ||||||||||
| 16:10 | 27.0 | 59.0 | 1020.8 | 0.0 | S | 8.0 | 0.0 | 42.0 | ||||||||||
| 16:15 | 26.8 | 59.0 | 1020.7 | 0.0 | NNW | 4.8 | 0.0 | 65.0 | ||||||||||
| 16:20 | 26.7 | 60.0 | 1020.8 | 0.0 | W | 4.8 | 0.0 | 65.0 | ||||||||||
| 16:25 | 26.7 | 59.0 | 1020.7 | 0.0 | S | 3.2 | 0.0 | 54.0 | ||||||||||
| 16:30 | 26.6 | 60.0 | 1020.6 | 0.0 | S | 3.2 | 0.0 | 53.0 | ||||||||||
| 16:35 | 26.4 | 60.0 | 1020.7 | 0.0 | E | 3.2 | 0.0 | 67.0 | ||||||||||
| 16:40 | 26.3 | 60.0 | 1020.7 | 0.0 | E | 1.6 | 0.0 | 56.0 | ||||||||||
| 16:45 | 26.1 | 61.0 | 1020.7 | 1.6 | E | 6.4 | 0.0 | 54.0 | ||||||||||
| 16:50 | 25.9 | 62.0 | 1020.8 | 0.0 | ESE | 9.7 | 0.0 | 53.0 | ||||||||||
| 16:55 | 25.7 | 62.0 | 1020.8 | 3.2 | E | 9.7 | 0.0 | 84.0 | ||||||||||
| 17:00 | 25.6 | 63.0 | 1020.8 | 0.0 | SSE | 8.0 | 0.0 | 90.0 | ||||||||||
| 17:05 | 25.6 | 62.0 | 1020.8 | 1.6 | ESE | 8.0 | 0.0 | 86.0 | ||||||||||
| 17:10 | 25.4 | 63.0 | 1020.7 | 0.0 | SSE | 8.0 | 0.0 | 76.0 | ||||||||||
| 17:15 | 25.3 | 64.0 | 1020.7 | 0.0 | ESE | 4.8 | 0.0 | 42.0 | ||||||||||
| 17:20 | 25.2 | 64.0 | 1020.6 | 0.0 | E | 4.8 | 0.0 | 40.0 | ||||||||||
| 17:25 | 25.0 | 64.0 | 1020.6 | 1.6 | E | 6.4 | 0.0 | 97.0 | ||||||||||
| 17:30 | 24.7 | 65.0 | 1020.6 | 9.7 | E | 12.9 | 0.0 | 51.0 | ||||||||||
| 17:35 | 24.6 | 66.0 | 1020.6 | 0.0 | E | 12.9 | 0.0 | 40.0 | ||||||||||
| 17:40 | 24.5 | 66.0 | 1020.7 | 1.6 | E | 8.0 | 0.0 | 32.0 | ||||||||||
| 17:45 | 24.2 | 66.0 | 1020.7 | 3.2 | ENE | 6.4 | 0.0 | 26.0 | ||||||||||
| 17:50 | 24.1 | 67.0 | 1020.7 | 4.8 | ENE | 11.3 | 0.0 | 21.0 | ||||||||||
| 17:55 | 23.9 | 67.0 | 1020.7 | 0.0 | SSE | 11.3 | 0.0 | 19.0 | ||||||||||
| 18:00 | 23.8 | 68.0 | 1020.7 | 1.6 | E | 4.8 | 0.0 | 14.0 | ||||||||||
| 18:05 | 23.6 | 68.0 | 1020.7 | 1.6 | ENE | 8.0 | 0.0 | 12.0 | ||||||||||
| 18:10 | 23.5 | 68.0 | 1020.8 | 0.0 | ENE | 9.7 | 0.0 | 9.0 | ||||||||||
| 18:15 | 23.4 | 69.0 | 1020.7 | 1.6 | ENE | 4.8 | 0.0 | 5.0 | ||||||||||
| 18:20 | 23.3 | 69.0 | 1020.7 | 0.0 | ENE | 3.2 | 0.0 | 5.0 | ||||||||||
| 18:25 | 23.1 | 69.0 | 1020.7 | 0.0 | ENE | 3.2 | 0.0 | 0.0 | ||||||||||
| 18:30 | 23.0 | 70.0 | 1020.8 | 0.0 | E | 3.2 | 0.0 | 0.0 | ||||||||||
| 18:35 | 22.8 | 71.0 | 1020.9 | 3.2 | E | 8.0 | 0.0 | 0.0 | ||||||||||
| 18:40 | 22.6 | 71.0 | 1021.0 | 0.0 | ENE | 8.0 | 0.0 | 0.0 | ||||||||||
| 18:45 | 22.4 | 72.0 | 1021.0 | 4.8 | ENE | 11.3 | 0.0 | 0.0 | ||||||||||
| 18:50 | 22.3 | 73.0 | 1021.2 | 1.6 | ENE | 11.3 | 0.0 | 0.0 | ||||||||||
| 18:55 | 22.2 | 73.0 | 1021.1 | 0.0 | E | 9.7 | 0.0 | 0.0 | ||||||||||
| 19:00 | 22.2 | 73.0 | 1021.2 | 0.0 | E | 8.0 | 0.0 | 0.0 | ||||||||||
| 19:05 | 22.1 | 73.0 | 1021.2 | 0.0 | E | 0.0 | 0.0 | 0.0 | ||||||||||
| 19:10 | 21.8 | 74.0 | 1021.3 | 0.0 | N | 0.0 | 0.0 | 0.0 | ||||||||||
| 19:15 | 21.7 | 75.0 | 1021.3 | 0.0 | N | 0.0 | 0.0 | 0.0 | ||||||||||
| 19:20 | 21.6 | 75.0 | 1021.3 | 0.0 | N | 0.0 | 0.0 | 0.0 | ||||||||||
| 19:25 | 21.4 | 75.0 | 1021.4 | 0.0 | ENE | 0.0 | 0.0 | 0.0 | ||||||||||
| 19:30 | 21.4 | 76.0 | 1021.5 | 0.0 | ENE | 0.0 | 0.0 | 0.0 | ||||||||||
| 19:35 | 21.3 | 76.0 | 1021.6 | 0.0 | ENE | 0.0 | 0.0 | 0.0 | ||||||||||
| 19:40 | 21.2 | 77.0 | 1021.6 | 0.0 | ENE | 0.0 | 0.0 | 0.0 | ||||||||||
| 19:45 | 20.9 | 77.0 | 1021.7 | 0.0 | ENE | 0.0 | 0.0 | 0.0 | ||||||||||
| 19:50 | 20.8 | 78.0 | 1021.7 | 0.0 | N | 0.0 | 0.0 | 0.0 | ||||||||||
| 19:55 | 20.6 | 78.0 | 1021.8 | 0.0 | N | 0.0 | 0.0 | 0.0 | ||||||||||
| 20:00 | 20.5 | 79.0 | 1021.8 | 0.0 | N | 0.0 | 0.0 | 0.0 | ||||||||||
| 20:05 | 20.4 | 79.0 | 1021.8 | 0.0 | NNW | 0.0 | 0.0 | 0.0 | ||||||||||
| 20:10 | 20.2 | 80.0 | 1021.9 | 0.0 | NNW | 0.0 | 0.0 | 0.0 | ||||||||||
| 20:15 | 20.0 | 80.0 | 1022.0 | 0.0 | NNW | 0.0 | 0.0 | 0.0 | ||||||||||
| 20:20 | 19.9 | 81.0 | 1022.0 | 0.0 | NNW | 0.0 | 0.0 | 0.0 | ||||||||||
| 20:25 | 19.7 | 81.0 | 1022.0 | 0.0 | ENE | 0.0 | 0.0 | 0.0 | ||||||||||
| 20:30 | 19.7 | 82.0 | 1022.0 | 0.0 | ENE | 0.0 | 0.0 | 0.0 | ||||||||||
| 20:35 | 19.6 | 82.0 | 1022.0 | 0.0 | E | 0.0 | 0.0 | 0.0 | ||||||||||
| 20:40 | 19.4 | 82.0 | 1022.0 | 0.0 | E | 0.0 | 0.0 | 0.0 | ||||||||||
| 20:45 | 19.2 | 83.0 | 1022.0 | 0.0 | E | 0.0 | 0.0 | 0.0 | ||||||||||
| 20:50 | 19.0 | 84.0 | 1022.0 | 0.0 | E | 0.0 | 0.0 | 0.0 | ||||||||||
| 20:55 | 18.8 | 84.0 | 1021.8 | 3.2 | ENE | 3.2 | 0.0 | 0.0 | ||||||||||
| 21:00 | 18.8 | 84.0 | 1021.8 | 0.0 | E | 4.8 | 0.0 | 0.0 | ||||||||||
| 21:05 | 18.7 | 85.0 | 1021.9 | 0.0 | E | 4.8 | 0.0 | 0.0 | ||||||||||
| 21:10 | 18.6 | 85.0 | 1021.9 | 0.0 | E | 0.0 | 0.0 | 0.0 | ||||||||||
| Màxima | 29.2 | 93.0 | 1023.2 | 11.3 | ESE | 20.9 | 0.0 | 770.0 | ||||||||||
| Mínima | 16.2 | 51.0 | 1020.5 | |||||||||||||||
| Total | 0.0 | |||||||||||||||||